Time;durP1;ratioP1;P1;durP2;ratioP2;P2;SDS_P1;SDS_P2;PMS_P1;PMS_P2;Temp;Humidity;BMP_temperature;BMP_pressure;BME280_temperature;BME280_humidity;BME280_pressure;Samples;Min_cycle;Max_cycle;Signal;HPM_P1;HPM_P2
2023/12/03 00:00:41;;;;;;;6.68;3.88;;;3.00;99.90;;;;;;5052660;28;20079;-72
2023/12/03 00:03:08;;;;;;;5.85;1.70;;;3.00;99.90;;;;;;5052333;28;20086;-73
2023/12/03 00:05:36;;;;;;;1.75;1.48;;;2.90;99.90;;;;;;5052735;28;20013;-72
2023/12/03 00:08:02;;;;;;;0.30;0.30;;;2.80;99.90;;;;;;5051755;28;20377;-73
2023/12/03 00:10:28;;;;;;;4.85;1.45;;;2.90;99.90;;;;;;5051904;28;20013;-73
2023/12/03 00:12:54;;;;;;;12.40;3.88;;;2.90;99.90;;;;;;5052285;28;20060;-72
2023/12/03 00:15:21;;;;;;;4.57;3.00;;;2.80;99.90;;;;;;5052214;28;20072;-73
2023/12/03 00:17:48;;;;;;;0.80;0.80;;;2.90;99.90;;;;;;5052474;28;20040;-72
2023/12/03 00:20:13;;;;;;;1.48;1.02;;;3.00;99.90;;;;;;5052598;28;20386;-73
2023/12/03 00:22:40;;;;;;;0.10;0.10;;;3.10;99.90;;;;;;5050970;28;20024;-73
2023/12/03 00:25:06;;;;;;;15.57;5.07;;;3.10;99.90;;;;;;5052536;28;20036;-73
2023/12/03 00:27:32;;;;;;;6.20;4.55;;;3.00;99.90;;;;;;5051804;28;21735;-73
2023/12/03 00:29:58;;;;;;;12.93;4.25;;;3.10;99.90;;;;;;5052396;28;20473;-73
2023/12/03 00:32:24;;;;;;;0.80;0.80;;;3.00;99.90;;;;;;5052469;28;20021;-73
2023/12/03 00:34:51;;;;;;;1.75;1.17;;;2.90;99.90;;;;;;5051102;28;20460;-73
2023/12/03 00:37:17;;;;;;;2.72;0.75;;;2.90;99.90;;;;;;5051913;28;20029;-73
2023/12/03 00:39:43;;;;;;;0.10;0.10;;;2.80;99.90;;;;;;5052233;28;20028;-73
2023/12/03 00:42:08;;;;;;;2.10;2.00;;;2.80;99.90;;;;;;5052014;28;20031;-73
2023/12/03 00:44:34;;;;;;;17.42;6.20;;;2.80;99.90;;;;;;5052179;28;20017;-73
2023/12/03 00:47:00;;;;;;;8.75;4.65;;;2.80;99.90;;;;;;5050648;28;20079;-73
2023/12/03 00:49:26;;;;;;;3.95;1.67;;;2.90;99.90;;;;;;5052883;28;20048;-73
2023/12/03 00:51:52;;;;;;;7.13;4.05;;;2.70;99.90;;;;;;5054502;28;20025;-73
2023/12/03 00:54:18;;;;;;;9.50;4.93;;;2.70;99.90;;;;;;5055867;28;20437;-72
2023/12/03 00:56:43;;;;;;;0.80;0.50;;;2.70;99.90;;;;;;5055778;28;20029;-73
2023/12/03 00:59:09;;;;;;;9.55;1.58;;;2.70;99.90;;;;;;5055739;28;20036;-73
2023/12/03 01:01:35;;;;;;;1.38;1.27;;;2.80;99.90;;;;;;5055675;28;20021;-73
2023/12/03 01:04:01;;;;;;;0.50;0.50;;;2.60;99.90;;;;;;5055771;28;20035;-73
2023/12/03 01:06:27;;;;;;;1.85;1.75;;;2.60;99.90;;;;;;5055656;28;20406;-73
2023/12/03 01:08:53;;;;;;;0.10;0.10;;;2.50;99.90;;;;;;5055653;28;20032;-73
2023/12/03 01:11:18;;;;;;;0.80;0.70;;;2.50;99.90;;;;;;5055216;28;20021;-73
2023/12/03 01:13:44;;;;;;;3.13;1.17;;;2.70;99.90;;;;;;5055103;28;20446;-73
2023/12/03 01:16:17;;;;;;;0.63;0.63;;;2.70;99.90;;;;;;5055722;28;20485;-73
2023/12/03 01:18:43;;;;;;;2.45;2.25;;;2.60;99.90;;;;;;5054134;28;20082;-73
2023/12/03 01:21:09;;;;;;;0.10;0.10;;;2.50;99.90;;;;;;5055593;28;20381;-73
2023/12/03 01:23:35;;;;;;;0.73;0.73;;;2.50;99.90;;;;;;5054159;28;20021;-73
2023/12/03 01:26:01;;;;;;;8.25;3.92;;;2.40;99.90;;;;;;5053983;28;20366;-73
2023/12/03 01:28:27;;;;;;;7.88;2.35;;;2.50;99.90;;;;;;5055305;28;20060;-73
2023/12/03 01:30:53;;;;;;;3.75;2.22;;;2.50;99.90;;;;;;5037394;28;20032;-73
2023/12/03 01:33:19;;;;;;;2.17;1.73;;;2.50;99.90;;;;;;5055260;28;20531;-73
2023/12/03 01:35:44;;;;;;;3.15;2.90;;;2.40;99.90;;;;;;5037260;28;20139;-73
2023/12/03 01:38:10;;;;;;;6.72;3.88;;;2.50;99.90;;;;;;5054934;28;20029;-73
2023/12/03 01:40:36;;;;;;;4.90;4.22;;;2.30;99.90;;;;;;5055017;28;20029;-73
2023/12/03 01:43:02;;;;;;;1.95;1.85;;;2.40;99.90;;;;;;5053699;28;20017;-73
2023/12/03 01:45:28;;;;;;;5.38;2.50;;;2.40;99.90;;;;;;5054941;28;20466;-73
2023/12/03 01:47:55;;;;;;;0.40;0.40;;;2.20;99.90;;;;;;5054936;28;20029;-73
2023/12/03 01:50:22;;;;;;;3.78;3.10;;;2.20;99.90;;;;;;5054826;28;20031;-73
2023/12/03 01:52:49;;;;;;;19.52;3.70;;;2.20;99.90;;;;;;5054706;28;20095;-73
2023/12/03 01:55:17;;;;;;;0.80;0.77;;;2.10;99.90;;;;;;5053282;28;20033;-73
2023/12/03 01:57:43;;;;;;;3.28;0.63;;;2.10;99.90;;;;;;5054915;28;20040;-73
2023/12/03 02:00:10;;;;;;;1.33;1.23;;;2.20;99.90;;;;;;5054098;28;20389;-73
2023/12/03 02:02:40;;;;;;;0.73;0.73;;;2.00;99.90;;;;;;5054839;28;20108;-73
2023/12/03 02:05:06;;;;;;;6.68;4.93;;;2.20;99.90;;;;;;5054332;28;20029;-73
2023/12/03 02:07:32;;;;;;;2.85;1.23;;;2.00;99.90;;;;;;5054600;28;20023;-73
2023/12/03 02:09:59;;;;;;;3.50;1.77;;;2.00;99.90;;;;;;5054309;28;20029;-73
2023/12/03 02:12:26;;;;;;;3.92;2.42;;;1.90;99.90;;;;;;5053322;28;20025;-73
2023/12/03 02:14:52;;;;;;;0.20;0.20;;;1.90;99.90;;;;;;5054336;28;20086;-73
2023/12/03 02:17:18;;;;;;;4.30;1.77;;;1.90;99.90;;;;;;5054612;28;20025;-73
2023/12/03 02:19:44;;;;;;;8.98;4.40;;;2.00;99.90;;;;;;5053280;28;20483;-73
2023/12/03 02:22:09;;;;;;;5.57;2.30;;;1.90;99.90;;;;;;5054401;28;20021;-73
2023/12/03 02:24:35;;;;;;;11.13;3.83;;;2.00;99.90;;;;;;5054040;28;20496;-73
2023/12/03 02:27:01;;;;;;;2.92;2.08;;;2.00;99.90;;;;;;5054314;28;20024;-73
2023/12/03 02:29:27;;;;;;;2.05;1.30;;;1.90;99.90;;;;;;5052245;28;20509;-73
2023/12/03 02:31:52;;;;;;;0.30;0.30;;;1.90;99.90;;;;;;5052852;28;20094;-73
2023/12/03 02:34:18;;;;;;;0.77;0.57;;;2.00;99.90;;;;;;5054005;28;20432;-73
2023/12/03 02:36:44;;;;;;;2.78;1.63;;;2.00;99.90;;;;;;5053987;28;20024;-73
2023/12/03 02:39:10;;;;;;;3.22;2.72;;;2.00;99.90;;;;;;5053867;28;20491;-73
2023/12/03 02:41:36;;;;;;;3.03;1.38;;;2.10;99.90;;;;;;5053939;28;20025;-73
2023/12/03 02:44:01;;;;;;;8.32;3.60;;;2.00;99.90;;;;;;5054008;28;20059;-73
2023/12/03 02:46:28;;;;;;;6.35;2.80;;;1.90;99.90;;;;;;5053784;28;20040;-74
2023/12/03 02:48:53;;;;;;;0.10;0.10;;;1.90;99.90;;;;;;5053939;28;20064;-73
2023/12/03 02:51:20;;;;;;;11.95;5.13;;;1.90;99.90;;;;;;5053124;28;20493;-73
2023/12/03 02:53:46;;;;;;;4.13;1.88;;;1.90;99.90;;;;;;5052760;28;20025;-73
2023/12/03 02:56:13;;;;;;;2.83;2.50;;;2.00;99.90;;;;;;5054060;28;20128;-73
2023/12/03 02:58:39;;;;;;;1.55;1.48;;;2.00;99.90;;;;;;5053421;28;20028;-73
2023/12/03 03:01:08;;;;;;;7.22;3.58;;;2.00;99.90;;;;;;5053477;28;20044;-73
2023/12/03 03:03:34;;;;;;;12.93;4.63;;;1.90;99.90;;;;;;5051909;28;20063;-73
2023/12/03 03:06:00;;;;;;;0.60;0.60;;;1.80;99.90;;;;;;5053308;28;20044;-73
2023/12/03 03:08:25;;;;;;;14.15;5.22;;;1.70;99.90;;;;;;5053372;28;20477;-73
2023/12/03 03:10:51;;;;;;;7.82;2.95;;;1.60;99.90;;;;;;5053409;28;20025;-73
2023/12/03 03:13:17;;;;;;;8.45;5.85;;;1.60;99.90;;;;;;5051415;28;20147;-73
2023/12/03 03:15:43;;;;;;;6.40;2.85;;;1.60;99.90;;;;;;5053562;28;20412;-73
2023/12/03 03:18:09;;;;;;;3.03;2.67;;;1.70;99.90;;;;;;5053300;28;20474;-73
2023/12/03 03:20:35;;;;;;;9.30;4.65;;;1.60;99.90;;;;;;5052871;28;20519;-73
2023/12/03 03:23:00;;;;;;;1.10;1.10;;;1.90;99.90;;;;;;5053258;28;20029;-73
2023/12/03 03:25:26;;;;;;;0.57;0.57;;;1.90;99.90;;;;;;5052879;28;20025;-73
2023/12/03 03:27:52;;;;;;;0.82;0.82;;;1.60;99.90;;;;;;5053278;28;20517;-73
2023/12/03 03:30:18;;;;;;;0.40;0.40;;;1.60;99.90;;;;;;5052510;28;20028;-73
2023/12/03 03:32:44;;;;;;;1.67;1.55;;;1.60;99.90;;;;;;5053199;28;20048;-73
2023/12/03 03:35:09;;;;;;;3.03;1.70;;;1.70;99.90;;;;;;5051470;28;20068;-73
2023/12/03 03:37:35;;;;;;;5.05;1.65;;;1.70;99.90;;;;;;5052353;28;20024;-73
2023/12/03 03:40:02;;;;;;;0.10;0.10;;;1.70;99.90;;;;;;5053269;28;20087;-73
2023/12/03 03:42:28;;;;;;;2.03;1.92;;;1.80;99.90;;;;;;5051514;28;20087;-73
2023/12/03 03:44:54;;;;;;;3.08;2.38;;;1.80;99.90;;;;;;5053035;28;20060;-73
2023/12/03 03:47:20;;;;;;;5.82;3.53;;;1.80;99.90;;;;;;5052687;28;20436;-73
2023/12/03 03:49:46;;;;;;;6.30;2.28;;;1.80;99.90;;;;;;5051186;28;20125;-72
2023/12/03 03:52:12;;;;;;;5.95;1.02;;;1.70;99.90;;;;;;5052690;28;20378;-72
2023/12/03 03:54:41;;;;;;;9.82;4.95;;;1.70;99.90;;;;;;5052628;28;20056;-72
2023/12/03 03:57:07;;;;;;;1.02;1.02;;;1.70;99.90;;;;;;5051396;28;20032;-72
2023/12/03 03:59:33;;;;;;;3.20;2.83;;;1.90;99.90;;;;;;5051268;28;20489;-72
2023/12/03 04:01:59;;;;;;;2.83;2.58;;;1.80;99.90;;;;;;5052549;28;20063;-72
2023/12/03 04:04:25;;;;;;;19.00;2.50;;;1.80;99.90;;;;;;5052221;28;20040;-72
2023/12/03 04:06:51;;;;;;;2.30;1.45;;;1.60;99.90;;;;;;5052332;28;20381;-72
2023/12/03 04:09:17;;;;;;;9.57;2.00;;;1.70;99.90;;;;;;5052585;28;20033;-72
2023/12/03 04:11:46;;;;;;;1.52;1.30;;;1.80;99.90;;;;;;5052348;28;20148;-72
2023/12/03 04:14:15;;;;;;;2.30;1.55;;;1.70;99.90;;;;;;5051221;28;20119;-72
2023/12/03 04:16:41;;;;;;;6.90;3.78;;;1.70;99.90;;;;;;5052335;28;20062;-73
2023/12/03 04:19:07;;;;;;;3.78;3.45;;;1.80;99.90;;;;;;5052251;28;20075;-73
2023/12/03 04:21:33;;;;;;;9.75;4.80;;;1.70;99.90;;;;;;5051017;28;20455;-73
2023/12/03 04:23:59;;;;;;;3.88;3.58;;;1.60;99.90;;;;;;5054904;28;20025;-73
2023/12/03 04:26:26;;;;;;;1.02;0.88;;;1.50;99.90;;;;;;5056633;28;20028;-73
2023/12/03 04:28:52;;;;;;;2.15;2.00;;;1.50;99.90;;;;;;5055210;28;20021;-73
2023/12/03 04:31:21;;;;;;;11.63;4.15;;;1.50;99.90;;;;;;5056409;28;20065;-73
2023/12/03 04:33:52;;;;;;;8.35;2.67;;;1.60;99.90;;;;;;5054638;28;20036;-73
2023/12/03 04:36:19;;;;;;;6.65;3.92;;;1.70;99.90;;;;;;5055330;28;20033;-73
2023/12/03 04:38:45;;;;;;;17.40;5.88;;;1.60;99.90;;;;;;5056212;28;20025;-73
2023/12/03 04:41:11;;;;;;;12.15;5.90;;;1.50;99.90;;;;;;5054991;28;20028;-73
2023/12/03 04:43:37;;;;;;;0.47;0.47;;;1.40;99.90;;;;;;5055887;28;20029;-73
2023/12/03 04:46:07;;;;;;;3.40;2.63;;;1.40;99.90;;;;;;5054798;28;20044;-73
2023/12/03 04:48:34;;;;;;;9.80;4.32;;;1.50;99.90;;;;;;5057289;28;20531;-73
2023/12/03 04:51:00;;;;;;;3.42;2.83;;;1.40;99.90;;;;;;5055795;28;20087;-73
2023/12/03 04:53:26;;;;;;;15.60;5.80;;;1.30;99.90;;;;;;5055054;28;20063;-73
2023/12/03 04:55:53;;;;;;;1.63;1.52;;;1.30;99.90;;;;;;5055861;28;20439;-73
2023/12/03 04:58:18;;;;;;;9.10;3.30;;;1.30;99.90;;;;;;5055700;28;20104;-73
2023/12/03 05:00:45;;;;;;;7.88;4.45;;;1.30;99.90;;;;;;5056038;28;20464;-72
2023/12/03 05:03:10;;;;;;;1.30;1.10;;;1.30;99.90;;;;;;5055137;28;20105;-73
2023/12/03 05:05:36;;;;;;;3.72;3.38;;;1.20;99.90;;;;;;5055763;28;20056;-73
2023/12/03 05:08:02;;;;;;;1.52;1.45;;;1.40;99.90;;;;;;5055357;28;20040;-72
2023/12/03 05:10:29;;;;;;;3.10;2.60;;;1.40;99.90;;;;;;5055710;28;20021;-72
2023/12/03 05:12:55;;;;;;;13.15;4.15;;;1.30;99.90;;;;;;5055565;28;20477;-73
2023/12/03 05:15:21;;;;;;;2.33;0.95;;;1.40;99.90;;;;;;5052381;28;20037;-73
2023/12/03 05:17:47;;;;;;;22.98;11.00;;;1.40;99.90;;;;;;5055009;28;20060;-72
2023/12/03 05:20:13;;;;;;;2.60;2.38;;;1.40;99.90;;;;;;5055099;28;20064;-72
2023/12/03 05:22:39;;;;;;;11.25;2.42;;;1.20;99.90;;;;;;5055639;28;20025;-73
2023/12/03 05:25:06;;;;;;;3.70;2.63;;;1.30;99.90;;;;;;5055013;28;20028;-73
2023/12/03 05:27:32;;;;;;;6.38;3.97;;;1.40;99.90;;;;;;5037360;28;20029;-73
2023/12/03 05:29:58;;;;;;;6.10;2.28;;;1.50;99.90;;;;;;5055187;28;20036;-73
2023/12/03 05:32:24;;;;;;;2.17;1.73;;;1.40;99.90;;;;;;5054814;28;20020;-73
2023/12/03 05:34:51;;;;;;;17.38;4.40;;;1.50;99.90;;;;;;5054109;28;20148;-73
2023/12/03 05:37:17;;;;;;;3.13;2.15;;;1.40;99.90;;;;;;5054864;28;20100;-73
2023/12/03 05:39:43;;;;;;;13.00;3.70;;;1.40;99.90;;;;;;5054966;28;20605;-73
2023/12/03 05:42:09;;;;;;;1.58;1.50;;;1.40;99.90;;;;;;5053877;28;20051;-73
2023/12/03 05:44:35;;;;;;;4.75;3.13;;;1.50;99.90;;;;;;5054604;28;20021;-73
2023/12/03 05:47:01;;;;;;;7.57;5.93;;;1.50;99.90;;;;;;5053740;28;20488;-73
2023/12/03 05:49:27;;;;;;;8.15;5.07;;;1.40;99.90;;;;;;5053384;28;20065;-73
2023/12/03 05:51:54;;;;;;;2.13;1.95;;;1.50;99.90;;;;;;5054791;28;20072;-73
2023/12/03 05:54:20;;;;;;;5.05;3.92;;;1.50;99.90;;;;;;5054515;28;20029;-73
2023/12/03 05:56:45;;;;;;;10.88;3.53;;;1.50;99.90;;;;;;5054812;28;20028;-73
2023/12/03 05:59:12;;;;;;;15.43;6.97;;;1.60;99.90;;;;;;5053273;28;20425;-73
2023/12/03 06:01:38;;;;;;;13.77;6.85;;;1.50;99.90;;;;;;5053129;28;20045;-73
2023/12/03 06:04:07;;;;;;;0.85;0.85;;;1.50;99.90;;;;;;5053141;28;20082;-72
2023/12/03 06:06:34;;;;;;;12.40;6.15;;;1.50;99.90;;;;;;5052898;28;20040;-73
2023/12/03 06:09:01;;;;;;;17.52;7.95;;;1.50;99.90;;;;;;5036501;28;20028;-73
2023/12/03 06:11:27;;;;;;;28.52;9.00;;;1.40;99.90;;;;;;5052914;28;20037;-73
2023/12/03 06:13:55;;;;;;;17.25;4.28;;;1.50;99.90;;;;;;5054312;28;20077;-73
2023/12/03 06:16:22;;;;;;;16.33;6.40;;;1.40;99.90;;;;;;5054236;28;20033;-74
2023/12/03 06:18:48;;;;;;;16.25;8.38;;;1.30;99.90;;;;;;5052644;28;20021;-73
2023/12/03 06:21:14;;;;;;;22.77;8.52;;;1.30;99.90;;;;;;5053149;28;20036;-73
2023/12/03 06:23:40;;;;;;;7.68;3.50;;;1.40;99.90;;;;;;5054145;28;20017;-73
2023/12/03 06:26:06;;;;;;;37.75;5.68;;;1.50;99.90;;;;;;5054090;28;20396;-73
2023/12/03 06:28:32;;;;;;;4.32;2.15;;;1.50;99.90;;;;;;5054099;28;20036;-72
2023/12/03 06:30:57;;;;;;;5.47;3.58;;;1.50;99.90;;;;;;5053784;28;20021;-73
2023/12/03 06:33:23;;;;;;;14.05;6.53;;;1.40;99.90;;;;;;5036164;28;20432;-73
2023/12/03 06:35:49;;;;;;;13.27;8.05;;;1.30;99.90;;;;;;5053748;28;20367;-73
2023/12/03 06:38:15;;;;;;;17.65;7.90;;;1.30;99.90;;;;;;5053891;28;20041;-73
2023/12/03 06:40:42;;;;;;;4.47;2.15;;;1.30;99.90;;;;;;5053975;28;20024;-72
2023/12/03 06:43:08;;;;;;;11.48;3.05;;;1.30;99.90;;;;;;5039736;28;20056;-73
2023/12/03 06:45:34;;;;;;;9.65;5.80;;;1.20;99.90;;;;;;5053497;28;20060;-73
2023/12/03 06:48:00;;;;;;;7.53;4.63;;;1.20;99.90;;;;;;5052491;28;20485;-73
2023/12/03 06:50:26;;;;;;;8.75;5.90;;;1.30;99.90;;;;;;5053679;28;20354;-73
2023/12/03 06:52:52;;;;;;;12.18;5.38;;;1.40;99.90;;;;;;5053644;28;20474;-73
2023/12/03 06:55:18;;;;;;;3.88;3.55;;;1.40;99.90;;;;;;5053538;28;20032;-73
2023/12/03 06:57:43;;;;;;;23.40;9.40;;;1.30;99.90;;;;;;5053351;28;20039;-73
2023/12/03 07:00:10;;;;;;;9.43;5.57;;;1.30;99.90;;;;;;5053188;28;20054;-73
2023/12/03 07:02:36;;;;;;;10.45;5.25;;;1.50;99.90;;;;;;5053601;28;20057;-73
2023/12/03 07:05:02;;;;;;;12.38;4.72;;;1.50;99.90;;;;;;5051847;28;20086;-73
2023/12/03 07:07:30;;;;;;;17.70;6.85;;;1.40;99.90;;;;;;5053462;28;20100;-73
2023/12/03 07:09:56;;;;;;;17.02;8.15;;;1.50;99.90;;;;;;5052921;28;20025;-73
2023/12/03 07:12:22;;;;;;;1.60;1.17;;;1.40;99.90;;;;;;5053159;28;20029;-73
2023/12/03 07:14:47;;;;;;;12.60;6.63;;;1.40;99.90;;;;;;5052897;28;20392;-73
2023/12/03 07:17:13;;;;;;;15.40;4.97;;;1.40;99.90;;;;;;5052673;28;20068;-73
2023/12/03 07:19:43;;;;;;;10.35;5.70;;;1.50;99.90;;;;;;5053067;28;20025;-73
2023/12/03 07:22:10;;;;;;;4.60;1.50;;;1.40;99.90;;;;;;5051793;28;20086;-73
2023/12/03 07:24:37;;;;;;;13.25;6.22;;;1.50;99.90;;;;;;5053153;28;20025;-73
2023/12/03 07:27:03;;;;;;;3.10;1.10;;;1.50;99.90;;;;;;5052509;28;20470;-72
2023/12/03 07:29:29;;;;;;;5.63;2.88;;;1.60;99.90;;;;;;5053086;28;20029;-73
2023/12/03 07:31:55;;;;;;;5.10;2.80;;;1.50;99.90;;;;;;5052609;28;20029;-73
2023/12/03 07:34:21;;;;;;;8.45;2.28;;;1.50;99.90;;;;;;5053041;28;20056;-73
2023/12/03 07:36:48;;;;;;;7.43;4.55;;;1.60;99.90;;;;;;5052822;28;20029;-73
2023/12/03 07:39:14;;;;;;;5.75;2.30;;;1.60;99.90;;;;;;5052419;28;20036;-73
2023/12/03 07:41:39;;;;;;;7.80;2.40;;;1.50;99.90;;;;;;5052586;28;20024;-73
2023/12/03 07:44:06;;;;;;;0.77;0.70;;;1.50;99.90;;;;;;5051589;28;20397;-73
2023/12/03 07:46:35;;;;;;;3.78;3.20;;;1.60;99.90;;;;;;5052440;28;20025;-73
2023/12/03 07:49:01;;;;;;;2.28;1.95;;;1.70;99.90;;;;;;5052768;28;20049;-73
2023/12/03 07:51:29;;;;;;;12.02;5.03;;;1.60;99.90;;;;;;5052469;28;20633;-73
2023/12/03 07:53:55;;;;;;;12.70;5.07;;;1.50;99.90;;;;;;5052822;28;20064;-73
2023/12/03 07:56:21;;;;;;;6.18;2.65;;;1.50;99.90;;;;;;5050818;28;20087;-73
2023/12/03 07:58:46;;;;;;;9.43;5.30;;;1.50;99.90;;;;;;5052297;28;20019;-73
2023/12/03 08:01:12;;;;;;;8.60;2.88;;;1.60;99.90;;;;;;5052620;28;20033;-73
2023/12/03 08:03:38;;;;;;;17.77;4.80;;;1.60;99.90;;;;;;5051274;28;20029;-73
2023/12/03 08:06:05;;;;;;;10.23;3.58;;;1.60;99.90;;;;;;5052666;28;20036;-73
2023/12/03 08:08:30;;;;;;;6.03;2.70;;;1.70;99.90;;;;;;5052364;28;20491;-73
2023/12/03 08:10:56;;;;;;;7.93;3.60;;;1.70;99.90;;;;;;5052037;28;20021;-73
2023/12/03 08:13:23;;;;;;;13.43;5.07;;;1.70;99.90;;;;;;5052298;28;20524;-73
2023/12/03 08:15:49;;;;;;;1.77;1.42;;;1.70;99.90;;;;;;5051396;28;20029;-73
2023/12/03 08:18:15;;;;;;;4.80;3.00;;;1.80;99.90;;;;;;5052058;28;20036;-73
2023/12/03 08:20:40;;;;;;;5.72;3.65;;;1.80;99.90;;;;;;5051356;28;20118;-72
2023/12/03 08:23:06;;;;;;;3.97;2.75;;;1.90;99.90;;;;;;5051405;28;20021;-73
2023/12/03 08:25:32;;;;;;;4.32;2.58;;;1.90;99.90;;;;;;5054594;28;20060;-73
2023/12/03 08:27:58;;;;;;;5.80;3.58;;;1.90;99.90;;;;;;5052141;28;20037;-73
2023/12/03 08:30:25;;;;;;;5.00;3.25;;;1.90;99.90;;;;;;5052903;28;20029;-73
2023/12/03 08:32:51;;;;;;;4.28;2.70;;;2.00;99.90;;;;;;5062566;28;20027;-73
2023/12/03 08:35:17;;;;;;;5.90;4.72;;;2.00;99.90;;;;;;5059871;28;20045;-73
2023/12/03 08:37:43;;;;;;;30.17;7.90;;;2.00;99.90;;;;;;5052306;28;20021;-73
2023/12/03 08:40:09;;;;;;;2.55;1.75;;;2.00;99.90;;;;;;5054277;28;20033;-73
2023/12/03 08:42:35;;;;;;;0.82;0.82;;;2.00;99.90;;;;;;5051340;28;20128;-72
2023/12/03 08:45:01;;;;;;;2.58;1.25;;;2.00;99.90;;;;;;5068384;28;20104;-73
2023/12/03 08:47:28;;;;;;;3.80;1.30;;;2.10;99.90;;;;;;5065311;28;20036;-73
2023/12/03 08:49:55;;;;;;;7.22;3.50;;;2.20;99.90;;;;;;5061438;28;20543;-72
2023/12/03 08:52:21;;;;;;;1.48;1.15;;;2.20;99.90;;;;;;5056657;28;20029;-73
2023/12/03 08:54:46;;;;;;;5.50;2.15;;;2.30;99.90;;;;;;5056701;28;20029;-73
2023/12/03 08:57:12;;;;;;;14.18;5.43;;;2.20;99.90;;;;;;5066091;28;20025;-73
2023/12/03 08:59:38;;;;;;;13.40;6.28;;;2.10;99.90;;;;;;5054203;28;20112;-73
2023/12/03 09:02:05;;;;;;;3.65;1.33;;;2.20;99.90;;;;;;5062644;28;20063;-73
2023/12/03 09:04:31;;;;;;;1.65;1.33;;;2.20;99.90;;;;;;5055308;28;20094;-73
2023/12/03 09:06:57;;;;;;;7.70;3.97;;;2.30;99.90;;;;;;5065434;28;20124;-72
2023/12/03 09:09:22;;;;;;;2.78;2.28;;;2.40;99.90;;;;;;5043753;28;20028;-72
2023/12/03 09:11:48;;;;;;;3.00;2.35;;;2.40;99.90;;;;;;5062384;28;20033;-72
2023/12/03 09:14:14;;;;;;;15.82;6.85;;;2.30;99.90;;;;;;5053222;28;20041;-76
2023/12/03 09:16:40;;;;;;;6.90;2.60;;;2.30;99.90;;;;;;5055715;28;20040;-72
2023/12/03 09:19:05;;;;;;;5.90;3.28;;;2.40;99.90;;;;;;5064122;28;20466;-74
2023/12/03 09:21:31;;;;;;;13.85;6.40;;;2.40;99.90;;;;;;5047972;28;20060;-71
2023/12/03 09:23:57;;;;;;;7.22;2.58;;;2.40;99.90;;;;;;5053984;28;20035;-72
2023/12/03 09:26:23;;;;;;;4.25;2.97;;;2.40;99.90;;;;;;5060556;28;20071;-74
2023/12/03 09:28:49;;;;;;;6.47;3.13;;;2.50;99.90;;;;;;5059243;28;20029;-74
2023/12/03 09:31:15;;;;;;;4.43;1.63;;;2.50;99.90;;;;;;5068538;28;20024;-72
2023/12/03 09:33:40;;;;;;;5.38;2.92;;;2.40;99.90;;;;;;5072698;28;20101;-74
2023/12/03 09:36:07;;;;;;;10.55;4.05;;;2.50;99.90;;;;;;5066304;28;20037;-74
2023/12/03 09:38:34;;;;;;;8.00;2.83;;;2.50;99.90;;;;;;5055854;28;20440;-74
2023/12/03 09:41:04;;;;;;;9.15;3.80;;;2.50;99.90;;;;;;5059599;28;20376;-71
2023/12/03 09:43:32;;;;;;;18.25;6.30;;;2.60;99.90;;;;;;5055704;28;20346;-71
2023/12/03 09:45:59;;;;;;;8.80;4.63;;;2.70;99.90;;;;;;5064468;28;20500;-72
2023/12/03 09:48:29;;;;;;;9.05;4.35;;;2.70;99.90;;;;;;5056616;28;20560;-72
2023/12/03 09:50:59;;;;;;;8.05;3.85;;;2.60;99.90;;;;;;5061002;28;20523;-72
2023/12/03 09:53:29;;;;;;;10.00;3.38;;;2.60;99.90;;;;;;5052279;28;20021;-73
2023/12/03 09:55:55;;;;;;;7.80;3.63;;;2.70;99.90;;;;;;5060676;28;20073;-72
2023/12/03 09:58:21;;;;;;;11.52;3.75;;;2.70;99.90;;;;;;5057659;28;20055;-72
2023/12/03 10:00:48;;;;;;;2.63;1.77;;;2.70;99.90;;;;;;5055277;28;20028;-72
2023/12/03 10:03:13;;;;;;;8.38;3.95;;;2.80;99.90;;;;;;5058526;28;20485;-72
2023/12/03 10:05:39;;;;;;;6.13;3.70;;;2.90;99.90;;;;;;5058833;28;20017;-72
2023/12/03 10:08:06;;;;;;;8.63;3.97;;;2.90;99.90;;;;;;5055012;28;20045;-74
2023/12/03 10:10:36;;;;;;;8.07;3.25;;;3.00;99.90;;;;;;5062313;28;20428;-72
2023/12/03 10:13:04;;;;;;;9.65;4.75;;;3.00;99.90;;;;;;5051843;28;20025;-73
2023/12/03 10:15:30;;;;;;;1.25;0.90;;;3.10;99.90;;;;;;5034586;28;20437;-72
2023/12/03 10:17:56;;;;;;;9.75;3.75;;;3.20;99.90;;;;;;5064170;28;20048;-73
2023/12/03 10:20:22;;;;;;;3.65;2.97;;;3.20;99.90;;;;;;5062026;28;20025;-73
2023/12/03 10:22:49;;;;;;;6.30;3.88;;;3.30;99.90;;;;;;5060245;28;20521;-72
2023/12/03 10:25:35;;;;;;;5.18;3.75;;;3.30;99.90;;;;;;5056096;28;20048;-73
2023/12/03 10:28:02;;;;;;;7.90;4.03;;;3.30;99.90;;;;;;5053586;28;20032;-72
2023/12/03 10:30:28;;;;;;;9.68;6.20;;;3.40;99.90;;;;;;5059660;28;20028;-72
2023/12/03 10:32:54;;;;;;;14.98;4.80;;;3.40;99.90;;;;;;5058702;28;20029;-72
2023/12/03 10:35:24;;;;;;;8.50;3.85;;;3.60;99.90;;;;;;5057082;28;20476;-72
2023/12/03 10:37:50;;;;;;;6.63;2.22;;;3.70;99.90;;;;;;5055111;28;20028;-72
2023/12/03 10:40:18;;;;;;;1.13;1.02;;;3.60;99.90;;;;;;5055816;28;20469;-72
2023/12/03 10:42:44;;;;;;;4.50;3.03;;;3.60;99.90;;;;;;5055626;28;20127;-72
2023/12/03 10:45:15;;;;;;;6.65;2.63;;;3.90;99.90;;;;;;5068910;28;20549;-73
2023/12/03 10:47:42;;;;;;;5.80;3.13;;;3.90;99.90;;;;;;5065289;28;20038;-72
2023/12/03 10:50:11;;;;;;;5.53;2.63;;;3.90;99.90;;;;;;5057987;28;20033;-72
2023/12/03 10:52:38;;;;;;;6.22;4.38;;;3.70;99.90;;;;;;5052242;28;20017;-72
2023/12/03 10:55:06;;;;;;;2.67;2.35;;;3.80;99.90;;;;;;5053097;28;20036;-72
2023/12/03 10:57:37;;;;;;;8.00;4.72;;;3.90;99.90;;;;;;5062697;28;20044;-72
2023/12/03 11:00:12;;;;;;;8.13;4.03;;;3.90;99.90;;;;;;5059012;28;20151;-73
2023/12/03 11:02:59;;;;;;;3.72;1.73;;;3.90;99.90;;;;;;5057628;28;20047;-73
2023/12/03 11:05:29;;;;;;;1.08;1.05;;;3.90;99.90;;;;;;5036627;28;20025;-73
2023/12/03 11:07:56;;;;;;;14.55;5.90;;;4.10;99.90;;;;;;5051185;28;20043;-72
2023/12/03 11:10:22;;;;;;;9.68;4.50;;;4.20;99.90;;;;;;5039992;28;20025;-73
2023/12/03 11:12:50;;;;;;;21.00;7.57;;;4.20;99.90;;;;;;5060253;28;20053;-72
2023/12/03 11:15:18;;;;;;;4.22;1.05;;;3.90;99.90;;;;;;5053577;28;20060;-73
2023/12/03 11:17:45;;;;;;;8.18;3.95;;;3.90;99.90;;;;;;5053397;28;20033;-72
2023/12/03 11:20:32;;;;;;;14.77;3.78;;;3.80;99.90;;;;;;5062426;28;20033;-73
2023/12/03 11:23:20;;;;;;;7.60;3.00;;;3.60;99.90;;;;;;5063429;28;20032;-73
2023/12/03 11:26:11;;;;;;;6.13;3.47;;;3.50;99.90;;;;;;5044812;28;20203;-73
2023/12/03 11:28:53;;;;;;;15.20;5.38;;;3.60;99.90;;;;;;5053410;28;20031;-73
2023/12/03 11:31:19;;;;;;;3.92;2.60;;;3.50;99.90;;;;;;5061992;28;20028;-73
2023/12/03 11:33:54;;;;;;;10.50;4.00;;;3.50;99.90;;;;;;5052604;28;20111;-73
2023/12/03 11:36:20;;;;;;;1.38;1.08;;;3.50;99.90;;;;;;5063161;28;20511;-73
2023/12/03 11:38:47;;;;;;;6.40;2.80;;;3.50;99.90;;;;;;5054386;28;20021;-73
2023/12/03 11:41:13;;;;;;;8.45;2.70;;;3.50;99.90;;;;;;5053692;28;20715;-73
2023/12/03 11:43:39;;;;;;;19.92;5.53;;;3.50;99.90;;;;;;5060508;28;20043;-73
2023/12/03 11:46:06;;;;;;;0.68;0.45;;;3.40;99.90;;;;;;5064363;28;20400;-73
2023/12/03 11:48:33;;;;;;;12.30;5.28;;;3.50;99.90;;;;;;5070275;28;20027;-73
2023/12/03 11:50:58;;;;;;;5.35;2.75;;;3.60;99.90;;;;;;5070174;28;20036;-73
2023/12/03 11:53:43;;;;;;;15.05;3.50;;;3.60;99.90;;;;;;5051301;28;20021;-73
2023/12/03 11:56:09;;;;;;;9.15;5.50;;;3.50;99.90;;;;;;5063132;28;20489;-73
2023/12/03 11:58:35;;;;;;;9.70;4.78;;;3.50;99.90;;;;;;5059747;28;20017;-74
2023/12/03 12:01:01;;;;;;;0.93;0.93;;;3.50;99.90;;;;;;5060733;28;20499;-74
2023/12/03 12:03:27;;;;;;;5.70;3.50;;;3.60;99.90;;;;;;5051932;28;20017;-73
2023/12/03 12:05:53;;;;;;;3.67;2.22;;;3.70;99.90;;;;;;5037791;28;20525;-73
2023/12/03 12:08:21;;;;;;;7.85;4.43;;;3.70;99.90;;;;;;5058249;28;20049;-73
2023/12/03 12:10:47;;;;;;;8.00;2.80;;;3.60;99.90;;;;;;5054360;28;20032;-73
2023/12/03 12:13:14;;;;;;;2.35;1.27;;;3.60;99.90;;;;;;5053477;28;20465;-73
2023/12/03 12:15:42;;;;;;;15.95;6.50;;;3.60;99.90;;;;;;5051584;28;20036;-74
2023/12/03 12:18:11;;;;;;;3.47;1.88;;;3.60;99.90;;;;;;5034780;28;20044;-73
2023/12/03 12:20:38;;;;;;;10.27;3.97;;;3.50;99.90;;;;;;5062850;28;20023;-73
2023/12/03 12:23:03;;;;;;;11.70;4.30;;;3.50;99.90;;;;;;5065929;28;20576;-73
2023/12/03 12:25:30;;;;;;;4.07;2.15;;;3.40;99.90;;;;;;5061392;28;20084;-73
2023/12/03 12:27:56;;;;;;;1.25;1.00;;;3.40;99.90;;;;;;5053133;28;20044;-74
2023/12/03 12:30:28;;;;;;;9.90;3.53;;;3.30;99.90;;;;;;5059750;28;21251;-74
2023/12/03 12:32:55;;;;;;;8.85;2.45;;;3.40;99.90;;;;;;5059132;28;21126;-74
2023/12/03 12:35:23;;;;;;;12.27;5.20;;;3.20;99.90;;;;;;5054619;28;20358;-73
2023/12/03 12:38:18;;;;;;;6.22;3.97;;;3.20;99.90;;;;;;5051708;28;20025;-74
2023/12/03 12:40:54;;;;;;;8.20;4.88;;;3.20;99.90;;;;;;5053760;28;20037;-73
2023/12/03 12:43:23;;;;;;;5.80;3.30;;;3.40;99.90;;;;;;5045434;28;20531;-74
2023/12/03 12:45:49;;;;;;;5.35;3.15;;;3.50;99.90;;;;;;5059284;28;20389;-73
2023/12/03 12:48:35;;;;;;;1.95;0.75;;;3.40;99.90;;;;;;5054204;28;20033;-74
2023/12/03 12:51:01;;;;;;;3.70;3.33;;;3.50;99.90;;;;;;5052398;28;20055;-74
2023/12/03 12:53:58;;;;;;;3.03;2.38;;;3.40;99.90;;;;;;5057542;28;20049;-74